createdAt,value
2022-12-11T00:00:17.958Z,14.43
2022-12-11T00:02:45.664Z,14.63
2022-12-11T00:05:13.416Z,15.33
2022-12-11T00:07:41.366Z,15.07
2022-12-11T00:10:09.474Z,14.73
2022-12-11T00:12:36.083Z,13.97
2022-12-11T00:15:03.281Z,14.80
2022-12-11T00:17:30.701Z,15.33
2022-12-11T00:19:57.688Z,14.73
2022-12-11T00:22:25.185Z,15.13
2022-12-11T00:24:52.643Z,15.07
2022-12-11T00:27:20.277Z,13.93
2022-12-11T00:29:47.824Z,14.70
2022-12-11T00:32:15.392Z,14.93
2022-12-11T00:34:43.098Z,14.27
2022-12-11T00:37:10.710Z,14.57
2022-12-11T00:39:40.233Z,14.73
2022-12-11T00:42:08.592Z,14.37
2022-12-11T00:44:36.587Z,13.90
2022-12-11T00:47:04.374Z,13.67
2022-12-11T00:49:31.607Z,14.13
2022-12-11T00:51:58.771Z,14.97
2022-12-11T00:54:26.291Z,15.50
2022-12-11T00:56:56.285Z,17.50
2022-12-11T00:59:23.683Z,17.00
2022-12-11T01:01:52.178Z,17.47
2022-12-11T01:04:19.327Z,18.13
2022-12-11T01:06:46.726Z,17.87
2022-12-11T01:09:32.817Z,15.07
2022-12-11T01:11:59.619Z,17.70
2022-12-11T01:14:26.755Z,16.77
2022-12-11T01:16:53.743Z,15.00
2022-12-11T01:19:20.329Z,15.27
2022-12-11T01:21:46.926Z,15.97
2022-12-11T01:24:13.499Z,15.40
2022-12-11T01:26:40.102Z,15.77
2022-12-11T01:29:06.654Z,14.87
2022-12-11T01:31:34.024Z,13.07
2022-12-11T01:34:00.650Z,12.50
2022-12-11T01:36:27.273Z,13.37
2022-12-11T01:38:54.482Z,13.77
2022-12-11T01:41:21.683Z,14.23
2022-12-11T01:43:58.200Z,12.60
2022-12-11T01:46:25.439Z,12.77
2022-12-11T01:48:53.667Z,12.37
2022-12-11T01:51:21.393Z,12.77
2022-12-11T01:53:55.828Z,12.40
2022-12-11T01:56:23.016Z,13.13
2022-12-11T01:58:56.983Z,13.57
2022-12-11T02:01:34.705Z,15.53
2022-12-11T02:04:02.310Z,14.80
2022-12-11T02:06:42.940Z,14.10
2022-12-11T02:09:14.348Z,13.73
2022-12-11T02:12:01.034Z,13.40
2022-12-11T02:14:53.610Z,12.97
2022-12-11T02:17:26.147Z,12.97
2022-12-11T02:20:03.896Z,13.27
2022-12-11T02:22:42.749Z,14.03
2022-12-11T02:25:25.739Z,13.40
2022-12-11T02:28:26.636Z,14.10
2022-12-11T02:31:00.692Z,15.00
2022-12-11T02:33:37.198Z,14.90
2022-12-11T02:36:07.966Z,16.30
2022-12-11T02:38:39.395Z,16.80
2022-12-11T02:41:08.291Z,16.17
2022-12-11T02:43:37.885Z,16.50
2022-12-11T02:46:07.615Z,15.83
2022-12-11T02:48:35.994Z,15.87
2022-12-11T02:51:05.408Z,16.37
2022-12-11T02:53:35.302Z,16.10
2022-12-11T02:56:10.346Z,15.80
2022-12-11T02:58:47.714Z,16.37
2022-12-11T03:01:14.589Z,16.50
2022-12-11T03:03:41.469Z,16.13
2022-12-11T03:06:13.364Z,15.83
2022-12-11T03:08:39.964Z,15.43
2022-12-11T03:11:10.858Z,16.87
2022-12-11T03:13:39.058Z,15.87
2022-12-11T03:16:08.425Z,15.53
2022-12-11T03:18:56.151Z,15.93
2022-12-11T03:21:53.454Z,16.17
2022-12-11T03:24:30.538Z,16.53
2022-12-11T03:27:11.017Z,16.03
2022-12-11T03:29:45.141Z,15.77
2022-12-11T03:32:23.055Z,15.97
2022-12-11T03:35:09.869Z,16.93
2022-12-11T03:37:39.061Z,15.53
2022-12-11T03:40:13.189Z,15.67
2022-12-11T03:42:42.429Z,15.67
2022-12-11T03:45:09.921Z,15.60
2022-12-11T03:47:39.531Z,15.97
2022-12-11T03:50:09.622Z,15.23
2022-12-11T03:52:45.302Z,14.80
2022-12-11T03:55:15.163Z,15.37
2022-12-11T03:57:41.829Z,14.63
2022-12-11T04:00:15.341Z,15.43
2022-12-11T04:02:42.771Z,14.50
2022-12-11T04:05:11.114Z,14.70
2022-12-11T04:07:38.006Z,15.03
2022-12-11T04:10:05.754Z,15.10
2022-12-11T04:12:32.367Z,15.40
2022-12-11T04:15:04.664Z,14.77
2022-12-11T04:17:52.800Z,15.10
2022-12-11T04:20:39.029Z,14.90
2022-12-11T04:23:32.829Z,14.60
2022-12-11T04:26:20.335Z,15.10
2022-12-11T04:28:48.453Z,14.97
2022-12-11T04:31:17.925Z,15.70
2022-12-11T04:33:44.646Z,16.27
2022-12-11T04:36:12.267Z,15.23
2022-12-11T04:38:39.213Z,15.77
2022-12-11T04:41:09.313Z,16.63
2022-12-11T04:43:36.478Z,16.10
2022-12-11T04:46:07.401Z,15.80
2022-12-11T04:48:34.423Z,21.33
2022-12-11T04:51:01.049Z,17.60
2022-12-11T04:53:28.248Z,17.13
2022-12-11T04:55:55.621Z,19.07
2022-12-11T04:58:22.767Z,20.33
2022-12-11T05:00:49.354Z,19.77
2022-12-11T05:03:16.043Z,19.33
2022-12-11T05:05:48.553Z,18.43
2022-12-11T05:08:15.162Z,16.70
2022-12-11T05:10:44.528Z,17.93
2022-12-11T05:13:15.203Z,17.07
2022-12-11T05:15:41.803Z,15.57
2022-12-11T05:18:08.473Z,16.23
2022-12-11T05:20:35.133Z,15.27
2022-12-11T05:23:01.792Z,14.13
2022-12-11T05:25:28.472Z,17.30
2022-12-11T05:27:55.131Z,15.30
2022-12-11T05:30:21.699Z,14.90
2022-12-11T05:32:48.330Z,15.17
2022-12-11T05:35:15.032Z,15.13
2022-12-11T05:37:41.601Z,14.63
2022-12-11T05:40:09.020Z,14.90
2022-12-11T05:42:35.696Z,15.17
2022-12-11T05:45:02.346Z,14.23
2022-12-11T05:47:28.929Z,15.60
2022-12-11T05:49:55.565Z,14.83
2022-12-11T05:52:22.225Z,14.23
2022-12-11T05:54:50.481Z,14.57
2022-12-11T05:57:17.388Z,15.00
2022-12-11T05:59:43.974Z,13.90
2022-12-11T06:02:10.636Z,14.60
2022-12-11T06:04:37.288Z,15.50
2022-12-11T06:07:03.885Z,14.53
2022-12-11T06:09:30.599Z,13.93
2022-12-11T06:11:57.141Z,14.93
2022-12-11T06:14:23.734Z,14.83
2022-12-11T06:16:50.426Z,14.80
2022-12-11T06:19:18.521Z,15.30
2022-12-11T06:21:46.461Z,14.67
2022-12-11T06:24:13.027Z,14.93
2022-12-11T06:26:39.656Z,13.87
2022-12-11T06:29:10.945Z,14.17
2022-12-11T06:31:39.623Z,13.97
2022-12-11T06:34:06.526Z,14.70
2022-12-11T06:36:33.199Z,13.63
2022-12-11T06:38:59.808Z,13.67
2022-12-11T06:41:26.389Z,13.40
2022-12-11T06:43:53.041Z,13.57
2022-12-11T06:46:20.831Z,14.30
2022-12-11T06:48:48.771Z,15.00
2022-12-11T06:51:19.151Z,14.40
2022-12-11T06:53:45.916Z,14.53
2022-12-11T06:56:15.462Z,14.47
2022-12-11T06:58:44.014Z,15.90
2022-12-11T07:01:19.951Z,14.30
2022-12-11T07:03:47.120Z,14.83
2022-12-11T07:06:14.649Z,14.93
2022-12-11T07:08:41.315Z,15.23
2022-12-11T07:11:11.447Z,15.47
2022-12-11T07:13:38.536Z,15.47
2022-12-11T07:16:11.047Z,15.83
2022-12-11T07:18:43.241Z,14.90
2022-12-11T07:21:12.388Z,16.03
2022-12-11T07:23:39.626Z,16.50
2022-12-11T07:26:08.694Z,16.30
2022-12-11T07:28:35.418Z,17.17
2022-12-11T07:31:10.081Z,16.20
2022-12-11T07:33:36.715Z,20.07
2022-12-11T07:36:05.920Z,15.83
2022-12-11T07:38:32.511Z,15.57
2022-12-11T07:41:06.582Z,15.37
2022-12-11T07:43:34.045Z,16.37
2022-12-11T07:46:02.738Z,15.83
2022-12-11T07:48:30.180Z,16.60
2022-12-11T07:51:07.006Z,17.20
2022-12-11T07:53:33.564Z,17.17
2022-12-11T07:56:00.193Z,16.20
2022-12-11T07:58:27.927Z,16.97
2022-12-11T08:00:54.552Z,15.93
2022-12-11T08:03:21.821Z,16.77
2022-12-11T08:05:50.018Z,16.53
2022-12-11T08:08:16.843Z,15.83
2022-12-11T08:10:43.562Z,18.63
2022-12-11T08:13:10.233Z,16.43
2022-12-11T08:15:37.472Z,14.63
2022-12-11T08:18:04.638Z,16.00
2022-12-11T08:20:31.379Z,15.13
2022-12-11T08:22:59.276Z,16.53
2022-12-11T08:25:26.021Z,23.87
2022-12-11T08:27:52.600Z,21.50
2022-12-11T08:30:19.207Z,20.43
2022-12-11T08:32:45.806Z,19.63
2022-12-11T08:35:12.817Z,16.60
2022-12-11T08:37:40.161Z,16.90
2022-12-11T08:40:07.661Z,19.20
2022-12-11T08:42:34.341Z,18.00
2022-12-11T08:45:00.945Z,18.03
2022-12-11T08:47:27.835Z,20.33
2022-12-11T08:49:54.449Z,17.93
2022-12-11T08:52:21.016Z,15.33
2022-12-11T08:54:48.318Z,16.70
2022-12-11T08:57:15.336Z,16.23
2022-12-11T08:59:41.919Z,17.43
2022-12-11T09:02:12.422Z,16.87
2022-12-11T09:04:39.138Z,17.07
2022-12-11T09:07:06.024Z,19.03
2022-12-11T09:09:32.626Z,21.30
2022-12-11T09:12:01.565Z,16.50
2022-12-11T09:14:28.160Z,26.13
2022-12-11T09:16:54.765Z,17.90
2022-12-11T09:19:21.342Z,16.73
2022-12-11T09:21:48.581Z,17.10
2022-12-11T09:24:15.584Z,18.40
2022-12-11T09:26:42.366Z,22.47
2022-12-11T09:29:10.282Z,17.67
2022-12-11T09:31:37.395Z,15.50
2022-12-11T09:34:06.975Z,16.43
2022-12-11T09:36:34.192Z,16.80
2022-12-11T09:39:05.738Z,17.77
2022-12-11T09:41:46.711Z,17.73
2022-12-11T09:44:20.885Z,18.63
2022-12-11T09:46:48.957Z,16.13
2022-12-11T09:49:35.207Z,21.37
2022-12-11T09:52:19.566Z,21.07
2022-12-11T09:55:00.193Z,19.13
2022-12-11T09:57:40.370Z,17.27
2022-12-11T10:00:11.315Z,16.67
2022-12-11T10:03:03.107Z,16.33
2022-12-11T10:05:32.333Z,15.90
2022-12-11T10:08:20.068Z,15.70
2022-12-11T10:11:06.945Z,16.03
2022-12-11T10:13:57.774Z,13.80
2022-12-11T10:16:44.211Z,15.20
2022-12-11T10:19:22.102Z,13.53
2022-12-11T10:21:51.195Z,13.67
2022-12-11T10:25:07.448Z,15.47
2022-12-11T10:27:21.821Z,15.27
2022-12-11T10:30:18.940Z,14.60
2022-12-11T10:33:01.796Z,15.07
2022-12-11T10:35:54.732Z,13.20
2022-12-11T10:38:32.495Z,13.63
2022-12-11T10:41:21.025Z,12.03
2022-12-11T10:43:49.711Z,13.67
2022-12-11T10:46:25.521Z,13.43
2022-12-11T10:49:00.273Z,14.60
2022-12-11T10:51:32.705Z,15.33
2022-12-11T10:54:29.247Z,12.93
2022-12-11T10:56:58.113Z,11.83
2022-12-11T10:59:37.929Z,11.33
2022-12-11T11:02:07.550Z,11.77
2022-12-11T11:04:39.004Z,14.33
2022-12-11T11:07:21.881Z,12.90
2022-12-11T11:09:49.206Z,16.00
2022-12-11T11:12:20.614Z,13.63
2022-12-11T11:14:47.410Z,19.77
2022-12-11T11:17:16.790Z,12.90
2022-12-11T11:19:48.250Z,14.03
2022-12-11T11:22:17.989Z,15.87
2022-12-11T11:24:56.030Z,19.50
2022-12-11T11:28:00.109Z,15.60
2022-12-11T11:30:35.597Z,11.73
2022-12-11T11:33:05.397Z,12.83
2022-12-11T11:35:32.965Z,13.00
2022-12-11T11:38:05.815Z,12.23
2022-12-11T11:41:13.160Z,13.93
2022-12-11T11:43:49.722Z,11.47
2022-12-11T11:46:30.349Z,13.03
2022-12-11T11:49:18.720Z,11.50
2022-12-11T11:51:51.544Z,11.97
2022-12-11T11:54:31.571Z,10.60
2022-12-11T11:57:02.121Z,14.70
2022-12-11T11:59:34.445Z,14.33
2022-12-11T12:02:01.098Z,12.67
2022-12-11T12:04:34.975Z,12.27
2022-12-11T12:07:29.445Z,10.53
2022-12-11T12:10:37.441Z,10.30
2022-12-11T12:13:48.171Z,13.17
2022-12-11T12:19:45.355Z,14.60
2022-12-11T12:22:32.046Z,15.73
2022-12-11T12:25:17.119Z,12.47
2022-12-11T12:27:59.535Z,15.17
2022-12-11T12:30:32.358Z,14.20
2022-12-11T12:33:15.165Z,11.67
2022-12-11T12:35:54.595Z,11.37
2022-12-11T12:38:30.307Z,13.20
2022-12-11T12:41:04.318Z,11.47
2022-12-11T12:43:52.735Z,10.57
2022-12-11T12:46:59.450Z,11.43
2022-12-11T12:49:41.228Z,12.70
2022-12-11T12:52:38.718Z,10.27
2022-12-11T12:55:28.915Z,11.30
2022-12-11T12:58:05.314Z,11.53
2022-12-11T13:00:38.819Z,11.40
2022-12-11T13:03:17.914Z,11.40
2022-12-11T13:06:04.759Z,12.23
2022-12-11T13:08:40.126Z,11.50
2022-12-11T13:11:10.530Z,18.30
2022-12-11T13:13:39.893Z,14.77
2022-12-11T13:16:27.205Z,12.20
2022-12-11T13:18:54.534Z,13.20
2022-12-11T13:21:36.039Z,12.77
2022-12-11T13:24:26.846Z,13.63
2022-12-11T13:26:53.959Z,12.70
2022-12-11T13:29:41.496Z,17.90
2022-12-11T13:32:07.998Z,12.07
2022-12-11T13:34:37.828Z,13.97
2022-12-11T13:37:05.917Z,14.37
2022-12-11T13:39:37.496Z,14.93
2022-12-11T13:42:23.698Z,11.53
2022-12-11T13:44:51.502Z,12.73
2022-12-11T13:47:19.843Z,13.33
2022-12-11T13:49:50.758Z,14.83
2022-12-11T13:52:21.226Z,10.70
2022-12-11T13:54:50.903Z,11.30
2022-12-11T13:57:21.015Z,14.50
2022-12-11T13:59:54.198Z,13.07
2022-12-11T14:02:34.186Z,11.50
2022-12-11T14:05:05.302Z,14.80
2022-12-11T14:07:38.927Z,18.97
2022-12-11T14:10:18.596Z,11.73
2022-12-11T14:13:01.645Z,12.50
2022-12-11T14:15:30.206Z,10.90
2022-12-11T14:17:58.957Z,14.20
2022-12-11T14:20:29.121Z,11.50
2022-12-11T14:23:20.462Z,11.07
2022-12-11T14:25:57.354Z,11.03
2022-12-11T14:28:27.645Z,10.97
2022-12-11T14:30:59.628Z,11.90
2022-12-11T14:33:32.428Z,11.37
2022-12-11T14:36:00.390Z,11.10
2022-12-11T14:38:35.058Z,11.60
2022-12-11T14:41:10.906Z,11.13
2022-12-11T14:43:45.338Z,12.57
2022-12-11T14:46:18.193Z,11.47
2022-12-11T14:48:49.868Z,13.27
2022-12-11T14:51:19.441Z,13.00
2022-12-11T14:53:52.440Z,13.80
2022-12-11T14:56:23.534Z,16.57
2022-12-11T14:58:56.430Z,17.07
2022-12-11T15:01:28.294Z,13.53
2022-12-11T15:04:14.722Z,13.63
2022-12-11T15:06:47.435Z,14.67
2022-12-11T15:09:33.456Z,17.60
2022-12-11T15:12:18.427Z,14.93
2022-12-11T15:14:57.632Z,11.97
2022-12-11T15:17:26.071Z,11.73
2022-12-11T15:20:02.693Z,11.80
2022-12-11T15:22:32.275Z,14.47
2022-12-11T15:25:00.204Z,12.60
2022-12-11T15:27:37.481Z,10.80
2022-12-11T15:30:28.314Z,11.80
2022-12-11T15:33:17.368Z,9.70
2022-12-11T15:35:54.204Z,10.67
2022-12-11T15:38:34.197Z,11.40
2022-12-11T15:41:01.997Z,13.07
2022-12-11T15:43:31.934Z,11.07
2022-12-11T15:45:59.299Z,12.43
2022-12-11T15:48:25.902Z,13.97
2022-12-11T15:50:52.561Z,12.00
2022-12-11T15:53:19.607Z,11.60
2022-12-11T15:55:46.656Z,10.37
2022-12-11T15:58:17.490Z,10.30
2022-12-11T16:00:44.702Z,10.50
2022-12-11T16:03:14.129Z,12.13
2022-12-11T16:05:41.933Z,11.77
2022-12-11T16:08:14.991Z,13.00
2022-12-11T16:10:46.094Z,10.83
2022-12-11T16:13:13.640Z,10.30
2022-12-11T16:15:42.760Z,12.70
2022-12-11T16:18:11.977Z,11.27
2022-12-11T16:20:40.947Z,14.17
2022-12-11T16:23:08.443Z,14.63
2022-12-11T16:25:37.756Z,14.67
2022-12-11T16:28:05.141Z,11.83
2022-12-11T16:30:31.766Z,14.40
2022-12-11T16:32:58.334Z,13.40
2022-12-11T16:35:24.904Z,23.73
2022-12-11T16:37:53.585Z,21.73
2022-12-11T16:40:21.002Z,17.73
2022-12-11T16:42:47.939Z,21.77
2022-12-11T16:45:23.972Z,13.23
2022-12-11T16:47:50.781Z,11.13
2022-12-11T16:50:18.277Z,12.83
2022-12-11T16:52:45.385Z,14.57
2022-12-11T16:55:13.424Z,17.47
2022-12-11T16:57:40.551Z,18.50
2022-12-11T17:00:09.508Z,14.97
2022-12-11T17:02:36.475Z,16.87
2022-12-11T17:05:03.832Z,27.47
2022-12-11T17:07:32.252Z,17.70
2022-12-11T17:09:58.885Z,20.17
2022-12-11T17:12:27.564Z,10.97
2022-12-11T17:14:55.011Z,9.90
2022-12-11T17:17:21.621Z,14.57
2022-12-11T17:19:48.275Z,12.67
2022-12-11T17:22:15.308Z,11.40
2022-12-11T17:24:41.959Z,11.07
2022-12-11T17:27:08.615Z,10.33
2022-12-11T17:29:35.209Z,10.43
2022-12-11T17:32:03.310Z,12.20
2022-12-11T17:34:36.053Z,13.10
2022-12-11T17:37:04.828Z,10.10
2022-12-11T17:39:31.502Z,11.03
2022-12-11T17:41:58.169Z,12.83
2022-12-11T17:44:26.567Z,11.87
2022-12-11T17:46:53.744Z,17.40
2022-12-11T17:49:20.531Z,11.33
2022-12-11T17:51:47.994Z,12.17
2022-12-11T17:54:15.117Z,12.17
2022-12-11T17:56:41.746Z,9.03
2022-12-11T17:59:08.419Z,9.87
2022-12-11T18:01:35.143Z,10.10
2022-12-11T18:04:02.333Z,9.37
2022-12-11T18:06:29.925Z,12.03
2022-12-11T18:08:57.343Z,11.07
2022-12-11T18:11:24.642Z,11.80
2022-12-11T18:13:52.800Z,8.77
2022-12-11T18:16:29.000Z,10.13
2022-12-11T18:18:56.584Z,10.27
2022-12-11T18:21:26.759Z,12.13
2022-12-11T18:23:54.183Z,13.63
2022-12-11T18:26:20.898Z,13.30
2022-12-11T18:28:48.405Z,14.03
2022-12-11T18:31:15.815Z,13.03
2022-12-11T18:33:44.784Z,11.90
2022-12-11T18:36:14.560Z,11.43
2022-12-11T18:38:42.216Z,11.90
2022-12-11T18:41:10.390Z,19.50
2022-12-11T18:43:37.387Z,18.83
2022-12-11T18:46:14.101Z,15.87
2022-12-11T18:48:42.292Z,13.77
2022-12-11T18:51:12.143Z,10.47
2022-12-11T18:53:41.709Z,9.73
2022-12-11T18:56:11.878Z,8.60
2022-12-11T18:58:38.799Z,9.87
2022-12-11T19:01:11.073Z,10.50
2022-12-11T19:03:38.825Z,11.10
2022-12-11T19:06:28.507Z,12.23
2022-12-11T19:08:55.159Z,11.97
2022-12-11T19:11:24.566Z,11.53
2022-12-11T19:13:53.470Z,11.90
2022-12-11T19:16:22.744Z,13.10
2022-12-11T19:18:50.246Z,10.80
2022-12-11T19:21:17.956Z,13.17
2022-12-11T19:23:45.532Z,11.50
2022-12-11T19:26:20.915Z,10.20
2022-12-11T19:28:48.779Z,11.50
2022-12-11T19:31:22.499Z,11.17
2022-12-11T19:33:50.051Z,12.03
2022-12-11T19:36:19.992Z,11.90
2022-12-11T19:38:47.147Z,11.97
2022-12-11T19:41:26.735Z,11.27
2022-12-11T19:43:54.698Z,11.37
2022-12-11T19:46:23.069Z,10.23
2022-12-11T19:48:52.209Z,12.57
2022-12-11T19:51:33.902Z,9.70
2022-12-11T19:54:02.913Z,10.13
2022-12-11T19:56:29.934Z,9.50
2022-12-11T19:58:56.883Z,10.37
2022-12-11T20:01:28.706Z,9.90
2022-12-11T20:03:59.658Z,10.53
2022-12-11T20:06:32.426Z,9.57
2022-12-11T20:08:59.842Z,11.13
2022-12-11T20:11:26.760Z,11.57
2022-12-11T20:13:55.548Z,11.13
2022-12-11T20:16:39.456Z,11.30
2022-12-11T20:19:09.049Z,10.53
2022-12-11T20:21:35.641Z,11.97
2022-12-11T20:24:02.214Z,9.53
2022-12-11T20:26:31.043Z,10.43
2022-12-11T20:28:57.722Z,9.97
2022-12-11T20:31:25.842Z,10.73
2022-12-11T20:33:55.534Z,10.00
2022-12-11T20:36:23.371Z,11.63
2022-12-11T20:38:50.937Z,13.63
2022-12-11T20:41:20.576Z,12.77
2022-12-11T20:43:49.096Z,13.80
2022-12-11T20:46:17.208Z,15.73
2022-12-11T20:48:44.801Z,10.10
2022-12-11T20:51:13.112Z,10.07
2022-12-11T20:53:41.046Z,12.17
2022-12-11T20:56:16.795Z,11.00
2022-12-11T20:58:43.885Z,10.20
2022-12-11T21:01:19.299Z,8.87
2022-12-11T21:03:46.773Z,8.30
2022-12-11T21:06:25.751Z,9.17
2022-12-11T21:08:54.307Z,8.90
2022-12-11T21:11:21.743Z,10.27
2022-12-11T21:13:51.629Z,9.33
2022-12-11T21:16:19.300Z,8.37
2022-12-11T21:18:46.641Z,9.33
2022-12-11T21:21:14.535Z,11.50
2022-12-11T21:23:41.731Z,12.93
2022-12-11T21:26:09.018Z,12.73
2022-12-11T21:28:35.996Z,12.17
2022-12-11T21:31:05.414Z,11.50
2022-12-11T21:33:32.351Z,11.27
2022-12-11T21:36:00.794Z,13.00
2022-12-11T21:38:28.948Z,10.17
2022-12-11T21:40:56.183Z,9.30
2022-12-11T21:43:24.786Z,9.60
2022-12-11T21:46:00.811Z,10.10
2022-12-11T21:48:30.808Z,17.67
2022-12-11T21:51:37.968Z,13.30
2022-12-11T21:54:07.598Z,12.73
2022-12-11T21:56:34.662Z,13.63
2022-12-11T21:59:04.080Z,9.97
2022-12-11T22:01:37.366Z,9.07
2022-12-11T22:04:05.743Z,8.63
2022-12-11T22:06:33.393Z,8.80
2022-12-11T22:09:00.296Z,9.37
2022-12-11T22:11:31.229Z,8.70
2022-12-11T22:13:57.919Z,8.20
2022-12-11T22:16:24.771Z,8.53
2022-12-11T22:18:52.507Z,8.13
2022-12-11T22:21:19.303Z,12.90
2022-12-11T22:23:46.285Z,9.40
2022-12-11T22:26:20.525Z,7.73
2022-12-11T22:28:47.318Z,8.50
2022-12-11T22:31:16.896Z,7.80
2022-12-11T22:33:44.590Z,8.50
2022-12-11T22:36:11.453Z,8.67
2022-12-11T22:38:38.369Z,10.33
2022-12-11T22:41:26.006Z,9.83
2022-12-11T22:43:53.198Z,10.33
2022-12-11T22:46:22.550Z,8.17
2022-12-11T22:48:49.660Z,8.80
2022-12-11T22:51:16.677Z,9.37
2022-12-11T22:53:43.728Z,9.67
2022-12-11T22:56:12.401Z,9.23
2022-12-11T22:58:40.004Z,9.60
2022-12-11T23:01:12.894Z,9.90
2022-12-11T23:03:39.738Z,9.33
2022-12-11T23:06:08.594Z,9.80
2022-12-11T23:08:35.909Z,10.07
2022-12-11T23:11:09.239Z,8.53
2022-12-11T23:13:35.835Z,9.07
2022-12-11T23:16:02.431Z,8.87
2022-12-11T23:18:29.051Z,8.40
2022-12-11T23:20:55.912Z,9.47
2022-12-11T23:23:22.600Z,9.40
2022-12-11T23:25:49.203Z,9.40
2022-12-11T23:28:15.815Z,9.93
2022-12-11T23:30:42.391Z,11.67
2022-12-11T23:33:09.044Z,12.10
2022-12-11T23:35:35.714Z,11.47
2022-12-11T23:38:02.932Z,10.83
2022-12-11T23:40:29.523Z,10.50
2022-12-11T23:42:56.213Z,10.70
2022-12-11T23:45:23.363Z,10.03
2022-12-11T23:47:50.038Z,10.33
2022-12-11T23:50:17.838Z,11.20
2022-12-11T23:52:44.462Z,9.30
2022-12-11T23:55:11.742Z,10.13
2022-12-11T23:57:38.651Z,10.13
